Flight Track Log - Related Links

Times and Time Zones

All times are in EDT time to prevent confusion due to time zone crossing. See the ASQ6130 flight status page for this flight to view local times or setup timezone preferences in your user account.

Time Position Orientation Groundspeed Altitude Reporting Facility
EDT Latitude Longitude Course Direction KTS MPH feet Rate Location/Type
Sun 13:59:20 46.7511 -102.8708 189° South 270 311 7,500  Level Minneapolis Center
Sun 14:00:23 46.6561 -102.8706 180° South 279 321 10,000 1,680 Climbing Minneapolis Center
Sun 14:01:25 46.5642 -102.8750 182° South 303 349 11,000 1,403 Climbing Minneapolis Center
Sun 14:02:27 46.4611 -102.8819 183° South 345 397 12,900 1,645 Climbing Minneapolis Center
Sun 14:03:00 46.1838 -102.9862 182° South  Level Estimated
Sun 14:03:29 46.3558 -102.8894 183° South 370 426 14,400  Level Minneapolis Center
Sun 14:04:31 46.2497 -102.8953 182° South 378 435 15,800 1,403 Climbing Minneapolis Center
Sun 14:05:33 46.1408 -102.9011 182° South 386 444 17,300 1,548 Climbing Minneapolis Center
Sun 14:06:35 46.0092 -102.9081 182° South 393 452 19,000 1,548 Climbing Minneapolis Center
Sun 14:07:37 45.8989 -102.9136 182° South 395 455 20,500 1,403 Climbing Minneapolis Center
Sun 14:08:39 45.7858 -102.9206 182° South 403 464 21,900 1,403 Climbing Minneapolis Center
Sun 14:09:41 45.6717 -102.9269 182° South 407 468 23,400 1,355 Climbing Minneapolis Center
Sun 14:10:43 45.5517 -102.9331 182° South 410 472 24,700 768 Climbing Minneapolis Center
Sun 14:11:46 45.4350 -102.9517 186° South 419 482 25,000 144 Climbing Minneapolis Center
Sun 14:12:48 45.3153 -102.9942 194° South 437 503 25,000  Level Minneapolis Center
Sun 14:13:50 45.1669 -103.0453 194° South 452 520 25,000  Level Minneapolis Center
Sun 14:14:52 45.0461 -103.0914 195° South 452 520 25,000  Level Minneapolis Center
Sun 14:15:54 44.9267 -103.1389 196° South 448 516 25,000  Level Minneapolis Center
Sun 14:16:28 44.8561 -103.1703 198° South 448 516 25,000  Level Denver Center
Sun 14:17:30 44.7397 -103.2242 198° South 444 511 25,000  Level Denver Center
Sun 14:18:32 44.6247 -103.2897 202° Southwest 448 516 25,000  Level Denver Center
Sun 14:19:34 44.5244 -103.3806 213° Southwest 436 502 25,000  Level Denver Center
Sun 14:20:36 44.4153 -103.4786 213° Southwest 433 498 25,000  Level Denver Center
Sun 14:21:38 44.3011 -103.5778 212° Southwest 433 498 25,000  Level Denver Center
Sun 14:22:40 44.1994 -103.6558 209° Southwest 434 499 25,000  Level Denver Center
Sun 14:23:42 44.0728 -103.7233 201° Southwest 435 501 25,000  Level Denver Center
Sun 14:24:44 43.9553 -103.7497 189° South 446 513 25,000  Level Denver Center
Sun 14:25:46 43.8164 -103.7392 177° South 447 514 25,000  Level Denver Center
Sun 14:27:00 43.6947 -103.7214 174° South 453 521 25,000  Level Denver Center
Sun 14:28:03 43.5350 -103.7000 174° South 452 520 25,000  Level Denver Center
Sun 14:29:05 43.4133 -103.6817 174° South 455 524 25,000  Level Denver Center
Sun 14:30:07 43.2714 -103.6628 174° South 457 526 25,000  Level Denver Center
Sun 14:31:09 43.1489 -103.6464 174° South 459 528 25,000  Level Denver Center
Sun 14:32:11 43.0075 -103.6275 174° South 457 526 25,000  Level Denver Center
Sun 14:33:13 42.8853 -103.6111 174° South 458 527 25,000  Level Denver Center
Sun 14:34:15 42.7625 -103.5944 174° South 460 529 25,000  Level Denver Center
Sun 14:35:17 42.6189 -103.5761 175° South 462 532 25,000  Level Denver Center
Sun 14:36:19 42.4989 -103.5608 175° South 452 520 25,000  Level Denver Center
Sun 14:37:21 42.3633 -103.5425 174° South 439 505 25,000  Level Denver Center
Sun 14:38:23 42.2486 -103.5286 175° South 432 497 25,000  Level Denver Center
Sun 14:39:25 42.1158 -103.5097 174° South 429 494 25,000  Level Denver Center
Sun 14:40:27 42.0011 -103.4958 175° South 429 494 25,000  Level Denver Center
Sun 14:41:29 41.8686 -103.4825 176° South 428 493 25,000  Level Denver Center
Sun 14:42:32 41.7553 -103.4864 181° South 423 487 25,000  Level Denver Center
Sun 14:43:34 41.6411 -103.4889 181° South 426 490 25,000  Level Denver Center
Sun 14:44:36 41.5089 -103.4928 181° South 425 489 25,000  Level Denver Center
Sun 14:45:38 41.3956 -103.4961 181° South 424 488 25,000  Level Denver Center
Sun 14:46:40 41.2650 -103.4986 181° South 422 486 25,000  Level Denver Center
Sun 14:47:42 41.1519 -103.5028 182° South 424 488 25,000  Level Denver Center
Sun 14:48:44 41.0217 -103.5053 181° South 418 481 25,000  Level Denver Center
Sun 14:49:46 40.9092 -103.5261 188° South 413 475 25,000 -435 Level Denver Center
Sun 14:50:48 40.8156 -103.6047 212° Southwest 398 458 24,100 -484 Descending Denver Center
Sun 14:51:50 40.7214 -103.6883 214° Southwest 407 468 24,000 -48 Descending Denver Center
Sun 14:52:52 40.6211 -103.7731 213° Southwest 427 491 24,000 -435 Level Denver Center
Sun 14:53:54 40.5047 -103.8767 214° Southwest 423 487 23,100 -968 Descending Denver Center
Sun 14:54:56 40.4167 -103.9525 213° Southwest 383 441 22,000 -1,016 Descending Denver Center
Sun 14:55:58 40.3347 -104.0261 214° Southwest 336 387 21,000 -871 Descending Denver Center
Sun 14:57:00 40.2828 -104.0858 221° Southwest 327 376 20,200 -1,344 Descending Denver Center
Sun 14:58:03 40.1961 -104.1789 219° Southwest 328 377 18,200 -1,500 Descending Denver Center
Sun 14:59:04 40.1608 -104.2708 243° Southwest 369 425 17,100 -2,129 Descending Denver Center
Sun 15:00:07 40.1742 -104.4331 276° West 370 426 13,800 -2,448 Descending Denver Center
Sun 15:01:09 40.1992 -104.5539 285° West 326 375 12,000 -1,694 Descending Denver Center
Sun 15:02:11 40.1675 -104.6442 245° Southwest 289 333 10,300 -1,403 Descending Denver Center
Sun 15:03:13 40.0981 -104.6950 209° Southwest 261 300 9,100 -1,161 Descending Denver Center

Login

Don't have an account? Register now (free) for customized features, flight alerts, and more!